GCFV Airport Information

Runway Information
Runway 01 Length 7874 ft width 148 ft
Elevation 37 ft Threshold 0 ft Heading 2
Runway 19 Length 7874 ft Width 148 ft
Elevation 75 ft Threshold 0 ft Heading 182
Airport Frequencies
Type APP Name CANARIAS A Frequency 129.3 MHZ
Type ATIS Name ATIS Frequency 118.65 MHZ
Type GND Name GND Frequency 121.7 MHZ
Type TWR Name TWR Frequency 118.5 MHZ
Airport Navaids
Type VOR-DME Name Fuerteventura Frequency 114100 KHZ
Airport Weather Information & NOTAM
ADDS - METARS form results

(1449 UTC 24 June 2018)
 
METAR text: GCFV 241430Z 10007KT 080V160 9999 SCT024 23/18 Q1017
Conditions at: GCFV (FUERTEVENTURA AR, ES) observed 1430 UTC 24 June 2018
Temperature: 23.0°C (73°F)
Dewpoint: 18.0°C (64°F) [RH = 73%]
Pressure (altimeter): 30.03 inches Hg (1017.0 mb)
Winds: from the E (100 degrees) at 8 MPH (7 knots; 3.6 m/s)
Visibility: 6 or more miles (10+ km)
Ceiling: at least 12,000 feet AGL
Clouds: scattered clouds at 2400 feet AGL
Weather: no significant weather observed at this time

METAR text: GCFV 241400Z 08007KT 040V110 9999 FEW024 23/18 Q1017
Conditions at: GCFV (FUERTEVENTURA AR, ES) observed 1400 UTC 24 June 2018
Temperature: 23.0°C (73°F)
Dewpoint: 18.0°C (64°F) [RH = 73%]
Pressure (altimeter): 30.03 inches Hg (1017.0 mb)
Winds: from the E (80 degrees) at 8 MPH (7 knots; 3.6 m/s)
Visibility: 6 or more miles (10+ km)
Ceiling: at least 12,000 feet AGL
Clouds: few clouds at 2400 feet AGL
Weather: no significant weather observed at this time